sensor_id;sensor_type;location;lat;lon;timestamp;temperature;humidity
65034;DHT22;51601;51.356;12.458;2023-02-01T00:01:07;3.70;99.90
65034;DHT22;51601;51.356;12.458;2023-02-01T00:05:31;3.70;99.90
65034;DHT22;51601;51.356;12.458;2023-02-01T00:09:57;3.60;99.90
65034;DHT22;51601;51.356;12.458;2023-02-01T00:14:21;3.60;99.90
65034;DHT22;51601;51.356;12.458;2023-02-01T00:18:46;3.60;99.90
65034;DHT22;51601;51.356;12.458;2023-02-01T00:23:10;3.60;99.90
65034;DHT22;51601;51.356;12.458;2023-02-01T00:27:35;3.60;99.90
65034;DHT22;51601;51.356;12.458;2023-02-01T00:31:59;3.60;99.90
65034;DHT22;51601;51.356;12.458;2023-02-01T00:36:23;3.60;99.90
65034;DHT22;51601;51.356;12.458;2023-02-01T00:40:47;3.60;99.90
65034;DHT22;51601;51.356;12.458;2023-02-01T00:45:13;3.60;99.90
65034;DHT22;51601;51.356;12.458;2023-02-01T00:49:37;3.60;99.90
65034;DHT22;51601;51.356;12.458;2023-02-01T00:54:01;3.70;99.90
65034;DHT22;51601;51.356;12.458;2023-02-01T00:58:26;3.70;99.90
65034;DHT22;51601;51.356;12.458;2023-02-01T01:02:51;3.80;99.90
65034;DHT22;51601;51.356;12.458;2023-02-01T01:07:15;3.80;99.90
65034;DHT22;51601;51.356;12.458;2023-02-01T01:11:41;3.80;99.90
65034;DHT22;51601;51.356;12.458;2023-02-01T01:16:06;3.90;99.90
65034;DHT22;51601;51.356;12.458;2023-02-01T01:20:50;3.90;99.90
65034;DHT22;51601;51.356;12.458;2023-02-01T01:25:37;3.90;99.90
65034;DHT22;51601;51.356;12.458;2023-02-01T01:30:22;3.90;99.90
65034;DHT22;51601;51.356;12.458;2023-02-01T01:35:07;3.90;99.90
65034;DHT22;51601;51.356;12.458;2023-02-01T01:39:53;4.00;99.90
65034;DHT22;51601;51.356;12.458;2023-02-01T01:44:59;4.00;99.90
65034;DHT22;51601;51.356;12.458;2023-02-01T01:49:44;4.00;99.90
65034;DHT22;51601;51.356;12.458;2023-02-01T01:54:32;4.00;99.90
65034;DHT22;51601;51.356;12.458;2023-02-01T01:59:19;4.00;99.90
65034;DHT22;51601;51.356;12.458;2023-02-01T02:04:04;4.00;99.90
65034;DHT22;51601;51.356;12.458;2023-02-01T02:08:49;4.00;99.90
65034;DHT22;51601;51.356;12.458;2023-02-01T02:13:36;4.00;99.90
65034;DHT22;51601;51.356;12.458;2023-02-01T02:18:26;4.00;99.90
65034;DHT22;51601;51.356;12.458;2023-02-01T02:34:05;4.00;99.90
65034;DHT22;51601;51.356;12.458;2023-02-01T02:38:57;4.00;99.80
65034;DHT22;51601;51.356;12.458;2023-02-01T02:43:50;4.10;99.70
65034;DHT22;51601;51.356;12.458;2023-02-01T02:49:04;4.10;99.50
65034;DHT22;51601;51.356;12.458;2023-02-01T02:53:56;4.20;99.30
65034;DHT22;51601;51.356;12.458;2023-02-01T02:59:02;4.20;99.00
65034;DHT22;51601;51.356;12.458;2023-02-01T03:04:06;4.20;98.60
65034;DHT22;51601;51.356;12.458;2023-02-01T03:08:57;4.20;98.20
65034;DHT22;51601;51.356;12.458;2023-02-01T03:13:47;4.20;97.90
65034;DHT22;51601;51.356;12.458;2023-02-01T03:18:36;4.30;97.80
65034;DHT22;51601;51.356;12.458;2023-02-01T03:23:27;4.30;97.80
65034;DHT22;51601;51.356;12.458;2023-02-01T03:28:15;4.40;97.60
65034;DHT22;51601;51.356;12.458;2023-02-01T03:33:05;4.40;97.50
65034;DHT22;51601;51.356;12.458;2023-02-01T03:38:03;4.40;97.20
65034;DHT22;51601;51.356;12.458;2023-02-01T03:42:55;4.40;96.80
65034;DHT22;51601;51.356;12.458;2023-02-01T03:47:44;4.40;96.50
65034;DHT22;51601;51.356;12.458;2023-02-01T03:52:33;4.50;96.20
65034;DHT22;51601;51.356;12.458;2023-02-01T03:57:23;4.50;95.80
65034;DHT22;51601;51.356;12.458;2023-02-01T04:02:11;4.50;95.50
65034;DHT22;51601;51.356;12.458;2023-02-01T04:06:55;4.50;95.20
65034;DHT22;51601;51.356;12.458;2023-02-01T04:11:40;4.50;94.70
65034;DHT22;51601;51.356;12.458;2023-02-01T04:16:24;4.60;94.70
65034;DHT22;51601;51.356;12.458;2023-02-01T04:21:09;4.60;94.20
65034;DHT22;51601;51.356;12.458;2023-02-01T04:25:54;4.60;94.10
65034;DHT22;51601;51.356;12.458;2023-02-01T04:30:39;4.60;93.80
65034;DHT22;51601;51.356;12.458;2023-02-01T04:35:24;4.60;93.60
65034;DHT22;51601;51.356;12.458;2023-02-01T04:40:11;4.60;93.60
65034;DHT22;51601;51.356;12.458;2023-02-01T04:44:55;4.60;93.50
65034;DHT22;51601;51.356;12.458;2023-02-01T04:49:39;4.70;93.10
65034;DHT22;51601;51.356;12.458;2023-02-01T04:54:23;4.60;93.30
65034;DHT22;51601;51.356;12.458;2023-02-01T04:59:10;4.70;93.00
65034;DHT22;51601;51.356;12.458;2023-02-01T05:03:57;4.60;92.70
65034;DHT22;51601;51.356;12.458;2023-02-01T05:08:41;4.70;92.60
65034;DHT22;51601;51.356;12.458;2023-02-01T05:13:28;4.70;92.30
65034;DHT22;51601;51.356;12.458;2023-02-01T05:18:31;4.70;92.30
65034;DHT22;51601;51.356;12.458;2023-02-01T05:23:16;4.60;92.20
65034;DHT22;51601;51.356;12.458;2023-02-01T05:28:00;4.60;92.30
65034;DHT22;51601;51.356;12.458;2023-02-01T05:32:44;4.60;92.50
65034;DHT22;51601;51.356;12.458;2023-02-01T05:37:29;4.60;92.80
65034;DHT22;51601;51.356;12.458;2023-02-01T05:42:14;4.50;93.10
65034;DHT22;51601;51.356;12.458;2023-02-01T05:46:58;4.50;93.30
65034;DHT22;51601;51.356;12.458;2023-02-01T05:51:42;4.40;93.60
65034;DHT22;51601;51.356;12.458;2023-02-01T05:56:27;4.40;93.80
65034;DHT22;51601;51.356;12.458;2023-02-01T06:01:11;4.30;94.20
65034;DHT22;51601;51.356;12.458;2023-02-01T06:05:56;4.30;94.70
65034;DHT22;51601;51.356;12.458;2023-02-01T06:10:40;4.20;95.20
65034;DHT22;51601;51.356;12.458;2023-02-01T06:15:26;4.30;95.80
65034;DHT22;51601;51.356;12.458;2023-02-01T06:20:11;4.30;96.00
65034;DHT22;51601;51.356;12.458;2023-02-01T06:24:55;4.40;96.00
65034;DHT22;51601;51.356;12.458;2023-02-01T06:29:41;4.50;95.90
65034;DHT22;51601;51.356;12.458;2023-02-01T06:34:27;4.50;95.60
65034;DHT22;51601;51.356;12.458;2023-02-01T06:39:12;4.60;95.20
65034;DHT22;51601;51.356;12.458;2023-02-01T06:43:58;4.60;95.00
65034;DHT22;51601;51.356;12.458;2023-02-01T06:48:43;4.50;94.80
65034;DHT22;51601;51.356;12.458;2023-02-01T06:53:30;4.50;94.80
65034;DHT22;51601;51.356;12.458;2023-02-01T06:58:14;4.50;95.00
65034;DHT22;51601;51.356;12.458;2023-02-01T07:02:58;4.50;95.00
65034;DHT22;51601;51.356;12.458;2023-02-01T07:07:43;4.50;95.20
65034;DHT22;51601;51.356;12.458;2023-02-01T07:12:29;4.60;95.20
65034;DHT22;51601;51.356;12.458;2023-02-01T07:17:13;4.70;95.00
65034;DHT22;51601;51.356;12.458;2023-02-01T07:21:57;4.70;94.80
65034;DHT22;51601;51.356;12.458;2023-02-01T07:26:42;4.80;94.50
65034;DHT22;51601;51.356;12.458;2023-02-01T07:31:27;4.80;94.30
65034;DHT22;51601;51.356;12.458;2023-02-01T07:36:11;4.90;94.00
65034;DHT22;51601;51.356;12.458;2023-02-01T07:40:57;5.00;93.60
65034;DHT22;51601;51.356;12.458;2023-02-01T07:45:42;5.00;92.70
65034;DHT22;51601;51.356;12.458;2023-02-01T07:50:28;5.10;92.20
65034;DHT22;51601;51.356;12.458;2023-02-01T07:55:12;5.20;91.80
65034;DHT22;51601;51.356;12.458;2023-02-01T07:59:56;5.20;91.40
65034;DHT22;51601;51.356;12.458;2023-02-01T08:04:57;5.30;91.30
65034;DHT22;51601;51.356;12.458;2023-02-01T08:09:43;5.30;91.30
65034;DHT22;51601;51.356;12.458;2023-02-01T08:14:27;5.40;90.80
65034;DHT22;51601;51.356;12.458;2023-02-01T08:19:11;5.50;90.90
65034;DHT22;51601;51.356;12.458;2023-02-01T08:23:55;5.50;90.90
65034;DHT22;51601;51.356;12.458;2023-02-01T08:28:42;5.50;90.90
65034;DHT22;51601;51.356;12.458;2023-02-01T08:33:27;5.50;91.20
65034;DHT22;51601;51.356;12.458;2023-02-01T08:38:11;5.50;91.50
65034;DHT22;51601;51.356;12.458;2023-02-01T08:42:55;5.40;92.30
65034;DHT22;51601;51.356;12.458;2023-02-01T08:47:41;5.40;92.90
65034;DHT22;51601;51.356;12.458;2023-02-01T08:52:25;5.30;93.80
65034;DHT22;51601;51.356;12.458;2023-02-01T08:57:10;5.20;95.10
65034;DHT22;51601;51.356;12.458;2023-02-01T09:01:54;5.10;96.40
65034;DHT22;51601;51.356;12.458;2023-02-01T09:06:41;4.90;97.20
65034;DHT22;51601;51.356;12.458;2023-02-01T09:11:26;4.80;98.20
65034;DHT22;51601;51.356;12.458;2023-02-01T09:16:11;4.70;99.10
65034;DHT22;51601;51.356;12.458;2023-02-01T09:20:55;4.60;99.90
65034;DHT22;51601;51.356;12.458;2023-02-01T09:25:40;4.60;99.90
65034;DHT22;51601;51.356;12.458;2023-02-01T09:30:25;4.60;99.90
65034;DHT22;51601;51.356;12.458;2023-02-01T09:35:12;4.60;99.90
65034;DHT22;51601;51.356;12.458;2023-02-01T09:39:57;4.60;99.90
65034;DHT22;51601;51.356;12.458;2023-02-01T09:44:58;4.60;99.90
65034;DHT22;51601;51.356;12.458;2023-02-01T09:49:51;4.70;99.90
65034;DHT22;51601;51.356;12.458;2023-02-01T09:54:41;4.80;99.90
65034;DHT22;51601;51.356;12.458;2023-02-01T09:59:33;5.00;99.90
65034;DHT22;51601;51.356;12.458;2023-02-01T10:04:20;5.20;99.90
65034;DHT22;51601;51.356;12.458;2023-02-01T10:09:31;5.30;99.90
65034;DHT22;51601;51.356;12.458;2023-02-01T10:14:37;5.50;99.90
65034;DHT22;51601;51.356;12.458;2023-02-01T10:19:38;5.60;99.90
65034;DHT22;51601;51.356;12.458;2023-02-01T10:24:50;5.70;99.90
65034;DHT22;51601;51.356;12.458;2023-02-01T10:29:45;5.90;99.10
65034;DHT22;51601;51.356;12.458;2023-02-01T10:34:34;6.00;98.30
65034;DHT22;51601;51.356;12.458;2023-02-01T10:39:18;6.00;98.10
65034;DHT22;51601;51.356;12.458;2023-02-01T10:44:04;6.20;97.60
65034;DHT22;51601;51.356;12.458;2023-02-01T10:48:50;6.30;97.00
65034;DHT22;51601;51.356;12.458;2023-02-01T10:53:41;6.30;96.00
65034;DHT22;51601;51.356;12.458;2023-02-01T10:58:29;6.30;94.60
65034;DHT22;51601;51.356;12.458;2023-02-01T11:08:43;6.40;91.40
65034;DHT22;51601;51.356;12.458;2023-02-01T11:13:30;6.70;91.40
65034;DHT22;51601;51.356;12.458;2023-02-01T11:18:20;7.10;90.70
65034;DHT22;51601;51.356;12.458;2023-02-01T11:23:14;7.70;84.80
65034;DHT22;51601;51.356;12.458;2023-02-01T11:28:00;8.10;79.00
65034;DHT22;51601;51.356;12.458;2023-02-01T11:32:46;8.10;76.30
65034;DHT22;51601;51.356;12.458;2023-02-01T11:37:35;7.80;76.70
65034;DHT22;51601;51.356;12.458;2023-02-01T11:42:21;7.60;77.20
65034;DHT22;51601;51.356;12.458;2023-02-01T11:47:25;7.50;78.30
65034;DHT22;51601;51.356;12.458;2023-02-01T11:52:18;7.60;78.80
65034;DHT22;51601;51.356;12.458;2023-02-01T11:57:17;7.80;77.70
65034;DHT22;51601;51.356;12.458;2023-02-01T12:07:51;7.70;76.20
65034;DHT22;51601;51.356;12.458;2023-02-01T12:12:45;7.60;76.10
65034;DHT22;51601;51.356;12.458;2023-02-01T12:17:46;7.50;76.00
65034;DHT22;51601;51.356;12.458;2023-02-01T12:22:44;7.50;76.30
65034;DHT22;51601;51.356;12.458;2023-02-01T12:32:53;7.50;75.20
65034;DHT22;51601;51.356;12.458;2023-02-01T12:37:51;7.50;74.60
65034;DHT22;51601;51.356;12.458;2023-02-01T12:42:41;7.60;74.60
65034;DHT22;51601;51.356;12.458;2023-02-01T12:47:31;7.50;74.30
65034;DHT22;51601;51.356;12.458;2023-02-01T12:52:21;7.50;73.20
65034;DHT22;51601;51.356;12.458;2023-02-01T12:57:12;7.50;73.00
65034;DHT22;51601;51.356;12.458;2023-02-01T13:01:59;7.50;72.30
65034;DHT22;51601;51.356;12.458;2023-02-01T13:06:47;7.50;72.00
65034;DHT22;51601;51.356;12.458;2023-02-01T13:11:35;7.50;71.20
65034;DHT22;51601;51.356;12.458;2023-02-01T13:16:25;7.50;71.20
65034;DHT22;51601;51.356;12.458;2023-02-01T13:21:15;7.40;70.30
65034;DHT22;51601;51.356;12.458;2023-02-01T13:26:01;7.40;69.60
65034;DHT22;51601;51.356;12.458;2023-02-01T13:30:59;7.30;70.30
65034;DHT22;51601;51.356;12.458;2023-02-01T13:36:11;7.30;70.90
65034;DHT22;51601;51.356;12.458;2023-02-01T13:41:09;7.30;71.40
65034;DHT22;51601;51.356;12.458;2023-02-01T13:46:08;7.20;71.10
65034;DHT22;51601;51.356;12.458;2023-02-01T13:50:58;7.20;71.20
65034;DHT22;51601;51.356;12.458;2023-02-01T13:55:45;7.20;71.10
65034;DHT22;51601;51.356;12.458;2023-02-01T14:00:31;7.20;71.10
65034;DHT22;51601;51.356;12.458;2023-02-01T14:10:52;7.20;71.10
65034;DHT22;51601;51.356;12.458;2023-02-01T14:15:38;7.20;72.00
65034;DHT22;51601;51.356;12.458;2023-02-01T14:20:43;7.20;72.80
65034;DHT22;51601;51.356;12.458;2023-02-01T14:25:39;7.10;73.40
65034;DHT22;51601;51.356;12.458;2023-02-01T14:30:25;7.10;74.20
65034;DHT22;51601;51.356;12.458;2023-02-01T14:35:24;7.00;74.80
65034;DHT22;51601;51.356;12.458;2023-02-01T14:40:16;7.00;75.60
65034;DHT22;51601;51.356;12.458;2023-02-01T14:50:32;7.20;76.20
65034;DHT22;51601;51.356;12.458;2023-02-01T14:55:26;7.20;75.40
65034;DHT22;51601;51.356;12.458;2023-02-01T15:00:24;7.20;75.70
65034;DHT22;51601;51.356;12.458;2023-02-01T15:05:25;7.10;75.40
65034;DHT22;51601;51.356;12.458;2023-02-01T15:10:15;7.10;75.40
65034;DHT22;51601;51.356;12.458;2023-02-01T15:15:11;7.00;75.80
65034;DHT22;51601;51.356;12.458;2023-02-01T15:19:57;7.00;76.90
65034;DHT22;51601;51.356;12.458;2023-02-01T15:24:41;6.90;77.70
65034;DHT22;51601;51.356;12.458;2023-02-01T15:29:27;6.80;78.00
65034;DHT22;51601;51.356;12.458;2023-02-01T15:34:15;6.70;78.70
65034;DHT22;51601;51.356;12.458;2023-02-01T15:39:15;6.60;78.70
65034;DHT22;51601;51.356;12.458;2023-02-01T15:44:07;6.50;79.50
65034;DHT22;51601;51.356;12.458;2023-02-01T15:48:57;6.40;80.80
65034;DHT22;51601;51.356;12.458;2023-02-01T15:53:45;6.40;81.50
65034;DHT22;51601;51.356;12.458;2023-02-01T15:58:30;6.30;81.80
65034;DHT22;51601;51.356;12.458;2023-02-01T16:03:32;6.30;82.80
65034;DHT22;51601;51.356;12.458;2023-02-01T16:08:22;6.30;85.30
65034;DHT22;51601;51.356;12.458;2023-02-01T16:13:07;6.20;88.60
65034;DHT22;51601;51.356;12.458;2023-02-01T16:17:51;5.50;84.50
65034;DHT22;51601;51.356;12.458;2023-02-01T16:22:36;4.60;87.90
65034;DHT22;51601;51.356;12.458;2023-02-01T16:27:24;3.90;91.90
65034;DHT22;51601;51.356;12.458;2023-02-01T16:32:15;3.40;95.00
65034;DHT22;51601;51.356;12.458;2023-02-01T16:37:00;3.20;97.60
65034;DHT22;51601;51.356;12.458;2023-02-01T16:41:44;3.00;99.50
65034;DHT22;51601;51.356;12.458;2023-02-01T16:46:34;3.00;99.90
65034;DHT22;51601;51.356;12.458;2023-02-01T16:51:20;2.90;99.90
65034;DHT22;51601;51.356;12.458;2023-02-01T16:56:12;2.90;99.90
65034;DHT22;51601;51.356;12.458;2023-02-01T17:00:57;2.90;99.90
65034;DHT22;51601;51.356;12.458;2023-02-01T17:05:43;2.90;99.90
65034;DHT22;51601;51.356;12.458;2023-02-01T17:10:29;2.90;99.90
65034;DHT22;51601;51.356;12.458;2023-02-01T17:15:16;2.90;99.90
65034;DHT22;51601;51.356;12.458;2023-02-01T17:20:00;3.00;99.90
65034;DHT22;51601;51.356;12.458;2023-02-01T17:24:47;3.00;99.90
65034;DHT22;51601;51.356;12.458;2023-02-01T17:29:31;2.90;99.90
65034;DHT22;51601;51.356;12.458;2023-02-01T17:34:16;2.90;99.90
65034;DHT22;51601;51.356;12.458;2023-02-01T17:39:00;2.80;99.90
65034;DHT22;51601;51.356;12.458;2023-02-01T17:43:50;2.70;99.90
65034;DHT22;51601;51.356;12.458;2023-02-01T17:48:35;2.60;99.90
65034;DHT22;51601;51.356;12.458;2023-02-01T17:53:19;2.50;99.90
65034;DHT22;51601;51.356;12.458;2023-02-01T17:58:06;2.50;99.90
65034;DHT22;51601;51.356;12.458;2023-02-01T18:02:51;2.50;99.90
65034;DHT22;51601;51.356;12.458;2023-02-01T18:07:35;2.50;99.90
65034;DHT22;51601;51.356;12.458;2023-02-01T18:12:21;2.50;99.90
65034;DHT22;51601;51.356;12.458;2023-02-01T18:17:07;2.50;99.90
65034;DHT22;51601;51.356;12.458;2023-02-01T18:21:53;2.50;99.90
65034;DHT22;51601;51.356;12.458;2023-02-01T18:26:39;2.50;99.90
65034;DHT22;51601;51.356;12.458;2023-02-01T18:31:25;2.40;99.90
65034;DHT22;51601;51.356;12.458;2023-02-01T18:36:11;2.40;99.90
65034;DHT22;51601;51.356;12.458;2023-02-01T18:40:57;2.40;99.90
65034;DHT22;51601;51.356;12.458;2023-02-01T18:45:44;2.40;99.90
65034;DHT22;51601;51.356;12.458;2023-02-01T18:50:30;2.40;99.90
65034;DHT22;51601;51.356;12.458;2023-02-01T18:55:15;2.40;99.90
65034;DHT22;51601;51.356;12.458;2023-02-01T19:00:01;2.30;99.90
65034;DHT22;51601;51.356;12.458;2023-02-01T19:04:45;2.40;99.90
65034;DHT22;51601;51.356;12.458;2023-02-01T19:09:30;2.40;99.90
65034;DHT22;51601;51.356;12.458;2023-02-01T19:14:14;2.50;99.90
65034;DHT22;51601;51.356;12.458;2023-02-01T19:18:59;2.50;99.90
65034;DHT22;51601;51.356;12.458;2023-02-01T19:23:44;2.50;99.90
65034;DHT22;51601;51.356;12.458;2023-02-01T19:28:28;2.60;99.90
65034;DHT22;51601;51.356;12.458;2023-02-01T19:33:12;2.60;99.90
65034;DHT22;51601;51.356;12.458;2023-02-01T19:37:57;2.80;99.90
65034;DHT22;51601;51.356;12.458;2023-02-01T19:42:42;2.90;99.90
65034;DHT22;51601;51.356;12.458;2023-02-01T19:47:27;3.00;99.90
65034;DHT22;51601;51.356;12.458;2023-02-01T19:52:11;3.20;99.90
65034;DHT22;51601;51.356;12.458;2023-02-01T19:56:56;3.20;99.90
65034;DHT22;51601;51.356;12.458;2023-02-01T20:01:41;3.20;99.90
65034;DHT22;51601;51.356;12.458;2023-02-01T20:06:27;3.20;99.90
65034;DHT22;51601;51.356;12.458;2023-02-01T20:11:11;3.30;99.90
65034;DHT22;51601;51.356;12.458;2023-02-01T20:15:57;3.30;99.90
65034;DHT22;51601;51.356;12.458;2023-02-01T20:20:42;3.40;99.90
65034;DHT22;51601;51.356;12.458;2023-02-01T20:25:26;3.50;99.90
65034;DHT22;51601;51.356;12.458;2023-02-01T20:30:11;3.50;99.90
65034;DHT22;51601;51.356;12.458;2023-02-01T20:34:57;3.50;99.90
65034;DHT22;51601;51.356;12.458;2023-02-01T20:39:41;3.60;99.90
65034;DHT22;51601;51.356;12.458;2023-02-01T20:44:25;3.60;99.90
65034;DHT22;51601;51.356;12.458;2023-02-01T20:49:09;3.60;99.90
65034;DHT22;51601;51.356;12.458;2023-02-01T20:53:55;3.60;99.90
65034;DHT22;51601;51.356;12.458;2023-02-01T20:58:39;3.60;99.90
65034;DHT22;51601;51.356;12.458;2023-02-01T21:03:24;3.60;99.90
65034;DHT22;51601;51.356;12.458;2023-02-01T21:08:10;3.50;99.90
65034;DHT22;51601;51.356;12.458;2023-02-01T21:12:50;3.40;99.90
65034;DHT22;51601;51.356;12.458;2023-02-01T21:17:46;3.40;99.90
65034;DHT22;51601;51.356;12.458;2023-02-01T21:22:30;3.30;99.90
65034;DHT22;51601;51.356;12.458;2023-02-01T21:27:15;3.30;99.90
65034;DHT22;51601;51.356;12.458;2023-02-01T21:32:00;3.20;99.90
65034;DHT22;51601;51.356;12.458;2023-02-01T21:36:45;3.20;99.90
65034;DHT22;51601;51.356;12.458;2023-02-01T21:41:30;3.20;99.90
65034;DHT22;51601;51.356;12.458;2023-02-01T21:46:32;3.20;99.90
65034;DHT22;51601;51.356;12.458;2023-02-01T21:51:17;3.20;99.90
65034;DHT22;51601;51.356;12.458;2023-02-01T21:56:02;3.10;99.90
65034;DHT22;51601;51.356;12.458;2023-02-01T22:00:47;3.00;99.90
65034;DHT22;51601;51.356;12.458;2023-02-01T22:05:31;2.90;99.90
65034;DHT22;51601;51.356;12.458;2023-02-01T22:10:17;2.80;99.90
65034;DHT22;51601;51.356;12.458;2023-02-01T22:15:01;2.80;99.90
65034;DHT22;51601;51.356;12.458;2023-02-01T22:19:45;2.80;99.90
65034;DHT22;51601;51.356;12.458;2023-02-01T22:24:30;2.80;99.90
65034;DHT22;51601;51.356;12.458;2023-02-01T22:29:15;2.70;99.90
65034;DHT22;51601;51.356;12.458;2023-02-01T22:34:00;2.60;99.90
65034;DHT22;51601;51.356;12.458;2023-02-01T22:38:45;2.50;99.90
65034;DHT22;51601;51.356;12.458;2023-02-01T22:43:31;2.50;99.90
65034;DHT22;51601;51.356;12.458;2023-02-01T22:48:16;2.40;99.90
65034;DHT22;51601;51.356;12.458;2023-02-01T22:53:01;2.30;99.90
65034;DHT22;51601;51.356;12.458;2023-02-01T22:57:48;2.30;99.90
65034;DHT22;51601;51.356;12.458;2023-02-01T23:02:32;2.40;99.90
65034;DHT22;51601;51.356;12.458;2023-02-01T23:07:20;2.50;99.90
65034;DHT22;51601;51.356;12.458;2023-02-01T23:12:05;2.70;99.90
65034;DHT22;51601;51.356;12.458;2023-02-01T23:16:49;2.80;99.90
65034;DHT22;51601;51.356;12.458;2023-02-01T23:21:33;3.00;99.90
65034;DHT22;51601;51.356;12.458;2023-02-01T23:26:19;3.10;99.90
65034;DHT22;51601;51.356;12.458;2023-02-01T23:31:08;3.20;99.90
65034;DHT22;51601;51.356;12.458;2023-02-01T23:35:55;3.30;99.90
65034;DHT22;51601;51.356;12.458;2023-02-01T23:40:39;3.30;99.90
65034;DHT22;51601;51.356;12.458;2023-02-01T23:45:25;3.30;99.90
65034;DHT22;51601;51.356;12.458;2023-02-01T23:50:10;3.30;99.90
65034;DHT22;51601;51.356;12.458;2023-02-01T23:54:51;3.30;99.90
65034;DHT22;51601;51.356;12.458;2023-02-01T23:59:16;3.30;99.90
